createdAt,value
2023-03-02T00:02:41.797Z,2.29
2023-03-02T00:07:41.753Z,2.24
2023-03-02T00:12:41.636Z,2.22
2023-03-02T00:17:41.635Z,2.24
2023-03-02T00:22:41.532Z,2.18
2023-03-02T00:27:41.501Z,2.19
2023-03-02T00:32:41.421Z,2.18
2023-03-02T00:37:41.351Z,2.22
2023-03-02T00:42:41.297Z,2.22
2023-03-02T00:47:42.415Z,2.24
2023-03-02T00:52:41.166Z,2.19
2023-03-02T00:57:41.149Z,2.18
2023-03-02T01:02:41.122Z,2.19
2023-03-02T01:07:41.001Z,2.22
2023-03-02T01:12:40.941Z,2.19
2023-03-02T01:17:40.878Z,2.24
2023-03-02T01:22:40.828Z,2.18
2023-03-02T01:27:40.737Z,2.22
2023-03-02T01:32:40.755Z,2.19
2023-03-02T01:37:40.658Z,2.18
2023-03-02T01:42:40.571Z,2.10
2023-03-02T01:47:40.504Z,2.10
2023-03-02T01:52:40.439Z,2.06
2023-03-02T01:57:40.676Z,2.01
2023-03-02T02:02:40.350Z,2.01
2023-03-02T02:07:40.595Z,1.97
2023-03-02T02:12:40.183Z,1.93
2023-03-02T02:17:40.172Z,1.89
2023-03-02T02:22:40.113Z,1.81
2023-03-02T02:27:40.044Z,1.81
2023-03-02T02:32:40.046Z,1.74
2023-03-02T02:37:39.883Z,1.71
2023-03-02T02:42:39.826Z,1.64
2023-03-02T02:47:39.768Z,1.64
2023-03-02T02:52:39.735Z,1.59
2023-03-02T02:57:39.667Z,1.57
2023-03-02T03:02:39.556Z,1.53
2023-03-02T03:07:39.514Z,1.52
2023-03-02T03:12:39.798Z,1.53
2023-03-02T03:17:39.399Z,1.48
2023-03-02T03:22:39.347Z,1.48
2023-03-02T03:27:39.268Z,1.46
2023-03-02T03:32:39.177Z,1.42
2023-03-02T03:37:39.124Z,1.42
2023-03-02T03:42:39.096Z,1.36
2023-03-02T03:47:39.001Z,1.30
2023-03-02T03:52:38.981Z,1.26
2023-03-02T03:57:38.878Z,1.23
2023-03-02T04:02:38.971Z,1.23
2023-03-02T04:07:38.779Z,1.17
2023-03-02T04:12:38.707Z,1.12
2023-03-02T04:17:38.640Z,1.10
2023-03-02T04:22:38.596Z,1.10
2023-03-02T04:27:38.526Z,1.09
2023-03-02T04:32:38.452Z,1.05
2023-03-02T04:37:38.393Z,1.06
2023-03-02T04:42:38.363Z,1.05
2023-03-02T04:47:38.254Z,1.00
2023-03-02T04:52:38.215Z,1.02
2023-03-02T04:57:38.175Z,1.00
2023-03-02T05:02:38.164Z,0.99
2023-03-02T05:07:38.053Z,0.96
2023-03-02T05:12:37.964Z,0.88
2023-03-02T05:17:37.943Z,0.90
2023-03-02T05:22:37.813Z,0.92
2023-03-02T05:27:37.790Z,0.92
2023-03-02T05:32:37.754Z,0.98
2023-03-02T05:37:37.633Z,0.98
2023-03-02T05:42:37.560Z,0.92
2023-03-02T05:47:37.514Z,0.94
2023-03-02T05:52:37.464Z,0.91
2023-03-02T05:57:37.392Z,0.90
2023-03-02T06:02:37.410Z,0.91
2023-03-02T06:07:37.282Z,0.90
2023-03-02T06:12:37.230Z,0.87
2023-03-02T06:17:37.144Z,0.82
2023-03-02T06:22:37.062Z,0.88
2023-03-02T06:27:37.012Z,0.87
2023-03-02T06:32:36.987Z,0.92
2023-03-02T06:37:36.891Z,0.96
2023-03-02T06:42:36.794Z,0.98
2023-03-02T06:47:36.724Z,1.02
2023-03-02T06:52:36.697Z,1.09
2023-03-02T06:57:36.627Z,1.23
2023-03-02T07:02:36.581Z,1.44
2023-03-02T07:07:36.505Z,1.52
2023-03-02T07:12:36.426Z,1.63
2023-03-02T07:17:36.407Z,1.75
2023-03-02T07:22:36.341Z,1.84
2023-03-02T07:27:36.288Z,1.93
2023-03-02T07:32:36.248Z,1.99
2023-03-02T07:37:36.454Z,2.04
2023-03-02T07:42:36.062Z,2.17
2023-03-02T07:47:35.999Z,2.18
2023-03-02T07:52:35.932Z,2.24
2023-03-02T07:57:35.915Z,2.39
2023-03-02T08:02:35.846Z,2.40
2023-03-02T08:07:35.778Z,2.57
2023-03-02T08:12:35.758Z,2.73
2023-03-02T08:17:35.663Z,2.86
2023-03-02T08:22:35.566Z,2.91
2023-03-02T08:27:35.535Z,2.90
2023-03-02T08:32:35.590Z,3.14
2023-03-02T08:37:35.411Z,3.35
2023-03-02T08:42:35.345Z,3.56
2023-03-02T08:47:35.267Z,3.74
2023-03-02T08:52:35.279Z,3.81
2023-03-02T08:57:35.174Z,3.76
2023-03-02T09:02:35.100Z,3.91
2023-03-02T09:07:35.040Z,3.99
2023-03-02T09:12:34.986Z,4.05
2023-03-02T09:17:34.914Z,4.12
2023-03-02T09:22:34.875Z,4.23
2023-03-02T09:27:34.849Z,4.42
2023-03-02T09:32:34.932Z,4.69
2023-03-02T09:37:35.612Z,4.91
2023-03-02T09:42:43.636Z,5.14
2023-03-02T09:47:36.242Z,5.22
2023-03-02T09:52:34.535Z,5.34
2023-03-02T09:57:34.427Z,5.43
2023-03-02T10:02:34.370Z,5.67
2023-03-02T10:07:34.642Z,5.72
2023-03-02T10:12:34.239Z,5.95
2023-03-02T10:17:34.202Z,6.11
2023-03-02T10:22:34.110Z,6.31
2023-03-02T10:27:34.046Z,6.61
2023-03-02T10:32:34.004Z,6.73
2023-03-02T10:37:33.959Z,6.97
2023-03-02T10:42:33.917Z,7.19
2023-03-02T10:47:33.781Z,7.24
2023-03-02T10:52:33.743Z,7.46
2023-03-02T10:57:33.688Z,7.69
2023-03-02T11:02:33.570Z,7.96
2023-03-02T11:07:33.549Z,7.99
2023-03-02T11:12:33.451Z,8.05
2023-03-02T11:17:33.351Z,8.28
2023-03-02T11:22:33.332Z,8.50
2023-03-02T11:27:33.239Z,8.62
2023-03-02T11:32:33.253Z,8.75
2023-03-02T11:37:33.118Z,8.88
2023-03-02T11:42:33.080Z,9.06
2023-03-02T11:47:33.013Z,9.15
2023-03-02T11:52:32.950Z,9.37
2023-03-02T11:57:32.861Z,9.48
2023-03-02T12:02:32.835Z,9.80
2023-03-02T12:07:32.741Z,9.99
2023-03-02T12:12:32.702Z,9.99
2023-03-02T12:17:32.635Z,10.02
2023-03-02T12:22:32.617Z,10.12
2023-03-02T12:27:32.474Z,10.20
2023-03-02T12:32:32.472Z,10.20
2023-03-02T12:37:32.378Z,10.42
2023-03-02T12:42:32.297Z,10.49
2023-03-02T12:47:32.550Z,10.55
2023-03-02T12:52:32.277Z,10.73
2023-03-02T12:57:32.117Z,10.65
2023-03-02T13:02:32.095Z,10.78
2023-03-02T13:07:32.003Z,10.83
2023-03-02T13:12:31.903Z,10.93
2023-03-02T13:17:31.849Z,10.94
2023-03-02T13:22:31.842Z,11.03
2023-03-02T13:27:31.784Z,11.01
2023-03-02T13:32:31.707Z,11.09
2023-03-02T13:37:31.653Z,11.18
2023-03-02T13:42:31.505Z,11.28
2023-03-02T13:47:31.447Z,11.34
2023-03-02T13:52:31.415Z,11.28
2023-03-02T13:57:31.382Z,11.37
2023-03-02T14:02:31.402Z,11.34
2023-03-02T14:07:31.236Z,11.08
2023-03-02T14:12:31.254Z,11.13
2023-03-02T14:17:31.092Z,11.15
2023-03-02T14:22:31.017Z,11.12
2023-03-02T14:27:30.966Z,11.04
2023-03-02T14:32:31.038Z,11.15
2023-03-02T14:37:30.917Z,11.03
2023-03-02T14:42:31.032Z,11.05
2023-03-02T14:47:30.718Z,11.11
2023-03-02T14:52:30.646Z,11.15
2023-03-02T14:57:30.570Z,11.12
2023-03-02T15:02:30.622Z,11.09
2023-03-02T15:07:30.486Z,11.04
2023-03-02T15:12:30.404Z,11.00
2023-03-02T15:17:30.336Z,10.90
2023-03-02T15:22:30.268Z,10.80
2023-03-02T15:27:30.194Z,10.73
2023-03-02T15:32:30.162Z,10.68
2023-03-02T15:37:30.069Z,10.61
2023-03-02T15:42:30.010Z,10.61
2023-03-02T15:47:29.928Z,10.43
2023-03-02T15:52:29.896Z,10.39
2023-03-02T15:57:29.801Z,10.30
2023-03-02T16:02:29.783Z,10.26
2023-03-02T16:07:29.673Z,10.18
2023-03-02T16:12:29.652Z,10.10
2023-03-02T16:17:29.590Z,10.02
2023-03-02T16:22:29.496Z,9.93
2023-03-02T16:27:29.429Z,9.84
2023-03-02T16:32:29.423Z,9.75
2023-03-02T16:37:29.362Z,9.62
2023-03-02T16:42:29.265Z,9.52
2023-03-02T16:47:29.239Z,9.47
2023-03-02T16:52:29.225Z,9.30
2023-03-02T16:57:29.036Z,9.14
2023-03-02T17:02:29.323Z,9.01
2023-03-02T17:07:29.888Z,8.86
2023-03-02T17:12:28.894Z,8.68
2023-03-02T17:17:28.797Z,8.52
2023-03-02T17:22:28.763Z,8.46
2023-03-02T17:27:28.664Z,8.32
2023-03-02T17:32:28.654Z,8.14
2023-03-02T17:37:28.557Z,8.06
2023-03-02T17:42:28.480Z,8.01
2023-03-02T17:47:28.393Z,7.91
2023-03-02T17:52:28.354Z,7.81
2023-03-02T17:57:28.285Z,7.76
2023-03-02T18:02:28.219Z,7.66
2023-03-02T18:07:28.138Z,7.57
2023-03-02T18:12:28.074Z,7.47
2023-03-02T18:17:28.043Z,7.40
2023-03-02T18:22:27.981Z,7.37
2023-03-02T18:27:27.927Z,7.28
2023-03-02T18:32:27.816Z,7.22
2023-03-02T18:37:27.776Z,7.07
2023-03-02T18:42:27.746Z,6.99
2023-03-02T18:47:27.679Z,6.92
2023-03-02T18:52:27.785Z,6.85
2023-03-02T18:57:27.686Z,6.78
2023-03-02T19:02:27.589Z,6.68
2023-03-02T19:07:27.411Z,6.64
2023-03-02T19:12:27.433Z,6.55
2023-03-02T19:17:27.327Z,6.45
2023-03-02T19:22:27.283Z,6.38
2023-03-02T19:27:27.095Z,6.27
2023-03-02T19:32:27.129Z,6.15
2023-03-02T19:37:26.961Z,6.12
2023-03-02T19:42:26.912Z,6.08
2023-03-02T19:47:26.829Z,5.91
2023-03-02T19:52:26.754Z,5.84
2023-03-02T19:57:26.695Z,5.79
2023-03-02T20:02:26.660Z,5.73
2023-03-02T20:07:26.558Z,5.59
2023-03-02T20:12:26.537Z,5.50
2023-03-02T20:17:26.424Z,5.52
2023-03-02T20:22:26.367Z,5.48
2023-03-02T20:27:26.313Z,5.36
2023-03-02T20:32:26.255Z,5.32
2023-03-02T20:37:26.212Z,5.32
2023-03-02T20:42:26.130Z,5.24
2023-03-02T20:47:26.071Z,5.16
2023-03-02T20:52:26.014Z,5.11
2023-03-02T20:57:25.969Z,5.03
2023-03-02T21:02:25.930Z,4.89
2023-03-02T21:07:25.841Z,4.83
2023-03-02T21:12:25.791Z,4.78
2023-03-02T21:17:25.696Z,4.59
2023-03-02T21:22:25.690Z,4.49
2023-03-02T21:27:25.616Z,4.45
2023-03-02T21:32:25.631Z,4.35
2023-03-02T21:37:25.630Z,4.28
2023-03-02T21:42:25.479Z,4.34
2023-03-02T21:47:25.401Z,4.30
2023-03-02T21:52:25.346Z,4.31
2023-03-02T21:57:25.282Z,4.26
2023-03-02T22:02:25.237Z,4.17
2023-03-02T22:07:25.179Z,4.18
2023-03-02T22:12:25.179Z,4.16
2023-03-02T22:17:25.076Z,4.16
2023-03-02T22:22:25.029Z,4.16
2023-03-02T22:27:24.944Z,4.03
2023-03-02T22:32:24.965Z,3.94
2023-03-02T22:37:24.836Z,3.90
2023-03-02T22:42:24.760Z,3.76
2023-03-02T22:47:24.691Z,3.67
2023-03-02T22:52:24.626Z,3.62
2023-03-02T22:57:24.594Z,3.51
2023-03-02T23:02:24.498Z,3.56
2023-03-02T23:07:24.466Z,3.63
2023-03-02T23:12:24.415Z,3.67
2023-03-02T23:17:24.335Z,3.69
2023-03-02T23:22:24.285Z,3.62
2023-03-02T23:27:24.223Z,3.60
2023-03-02T23:32:24.236Z,3.49
2023-03-02T23:37:24.094Z,3.35
2023-03-02T23:42:24.012Z,3.30
2023-03-02T23:47:23.966Z,3.11
2023-03-02T23:52:23.886Z,3.04
2023-03-02T23:57:23.849Z,3.07
